createdAt,value
2023-04-08T00:00:13.592Z,99.90
2023-04-08T00:02:40.092Z,99.90
2023-04-08T00:05:06.841Z,99.90
2023-04-08T00:07:33.332Z,99.90
2023-04-08T00:09:59.531Z,99.90
2023-04-08T00:12:25.723Z,99.90
2023-04-08T00:14:52.302Z,99.90
2023-04-08T00:17:18.761Z,99.90
2023-04-08T00:19:45.850Z,99.90
2023-04-08T00:22:12.351Z,99.90
2023-04-08T00:24:39.970Z,99.90
2023-04-08T00:27:06.288Z,99.90
2023-04-08T00:29:32.526Z,99.90
2023-04-08T00:31:59.191Z,99.90
2023-04-08T00:34:25.517Z,99.90
2023-04-08T00:36:51.651Z,99.90
2023-04-08T00:39:17.964Z,99.90
2023-04-08T00:41:44.071Z,99.90
2023-04-08T00:44:10.482Z,99.90
2023-04-08T00:46:38.448Z,99.90
2023-04-08T00:49:07.036Z,99.90
2023-04-08T00:51:35.949Z,99.90
2023-04-08T00:54:04.177Z,99.90
2023-04-08T00:56:32.031Z,99.90
2023-04-08T00:58:59.558Z,99.90
2023-04-08T01:03:06.499Z,99.90
2023-04-08T01:08:43.754Z,99.90
2023-04-08T01:11:12.365Z,99.90
2023-04-08T01:13:40.326Z,99.90
2023-04-08T01:16:10.692Z,99.90
2023-04-08T01:18:37.150Z,99.90
2023-04-08T01:21:03.461Z,99.90
2023-04-08T01:25:07.975Z,99.90
2023-04-08T01:27:34.464Z,99.90
2023-04-08T01:30:01.598Z,99.90
2023-04-08T01:32:27.983Z,99.90
2023-04-08T01:34:54.990Z,99.90
2023-04-08T01:37:21.210Z,99.90
2023-04-08T01:39:48.065Z,99.90
2023-04-08T01:42:14.622Z,99.90
2023-04-08T01:44:40.767Z,99.90
2023-04-08T01:47:07.058Z,99.90
2023-04-08T01:49:33.364Z,99.90
2023-04-08T01:51:59.766Z,99.90
2023-04-08T01:54:25.953Z,99.90
2023-04-08T01:56:52.090Z,99.90
2023-04-08T01:59:18.387Z,99.90
2023-04-08T02:01:45.138Z,99.90
2023-04-08T02:04:12.761Z,99.90
2023-04-08T02:06:38.974Z,99.90
2023-04-08T02:09:05.384Z,99.90
2023-04-08T02:11:31.704Z,99.90
2023-04-08T02:13:58.316Z,99.90
2023-04-08T02:16:50.475Z,99.90
2023-04-08T02:19:29.786Z,99.90
2023-04-08T02:22:01.586Z,99.90
2023-04-08T02:24:28.209Z,99.90
2023-04-08T02:26:55.322Z,99.90
2023-04-08T02:29:21.456Z,99.90
2023-04-08T02:31:48.299Z,99.90
2023-04-08T02:34:15.648Z,99.90
2023-04-08T02:36:45.984Z,99.90
2023-04-08T02:39:12.205Z,99.90
2023-04-08T02:41:38.527Z,99.90
2023-04-08T02:44:04.669Z,99.90
2023-04-08T02:46:30.866Z,99.90
2023-04-08T02:48:57.162Z,99.90
2023-04-08T02:51:23.933Z,99.90
2023-04-08T02:53:50.110Z,99.90
2023-04-08T02:56:16.402Z,99.90
2023-04-08T02:58:42.640Z,99.90
2023-04-08T03:01:09.067Z,99.90
2023-04-08T03:03:37.090Z,99.90
2023-04-08T03:06:03.768Z,99.90
2023-04-08T03:08:30.913Z,99.90
2023-04-08T03:10:57.249Z,99.90
2023-04-08T03:13:23.378Z,99.90
2023-04-08T03:15:49.898Z,99.90
2023-04-08T03:18:17.027Z,99.90
2023-04-08T03:20:43.485Z,99.90
2023-04-08T03:23:09.620Z,99.90
2023-04-08T03:25:35.753Z,99.90
2023-04-08T03:28:03.134Z,99.90
2023-04-08T03:30:29.342Z,99.90
2023-04-08T03:32:55.808Z,99.90
2023-04-08T03:35:22.292Z,99.90
2023-04-08T03:37:48.985Z,99.90
2023-04-08T03:40:15.528Z,99.90
2023-04-08T03:42:42.685Z,99.90
2023-04-08T03:45:09.194Z,99.90
2023-04-08T03:47:35.460Z,99.90
2023-04-08T03:50:01.791Z,99.90
2023-04-08T03:52:28.948Z,99.90
2023-04-08T03:54:55.141Z,99.90
2023-04-08T03:57:21.321Z,99.90
2023-04-08T03:59:47.463Z,99.90
2023-04-08T04:02:14.506Z,99.90
2023-04-08T04:04:41.007Z,99.90
2023-04-08T04:07:07.328Z,99.90
2023-04-08T04:09:33.508Z,99.90
2023-04-08T04:12:01.023Z,99.90
2023-04-08T04:14:27.208Z,99.90
2023-04-08T04:16:53.341Z,99.90
2023-04-08T04:19:19.620Z,99.90
2023-04-08T04:21:45.921Z,99.90
2023-04-08T04:24:13.578Z,99.90
2023-04-08T04:26:43.085Z,99.90
2023-04-08T04:29:09.555Z,99.90
2023-04-08T04:31:35.846Z,99.90
2023-04-08T04:34:02.024Z,99.90
2023-04-08T04:36:28.250Z,99.90
2023-04-08T04:38:54.482Z,99.90
2023-04-08T04:41:21.275Z,99.90
2023-04-08T04:43:47.458Z,99.90
2023-04-08T04:46:13.665Z,99.90
2023-04-08T04:48:41.071Z,99.90
2023-04-08T04:51:07.334Z,99.90
2023-04-08T04:53:33.559Z,99.90
2023-04-08T04:56:01.208Z,99.90
2023-04-08T04:58:27.772Z,99.90
2023-04-08T05:00:54.990Z,99.90
2023-04-08T05:03:21.613Z,99.90
2023-04-08T05:05:54.407Z,99.90
2023-04-08T05:08:20.628Z,99.90
2023-04-08T05:10:49.392Z,99.90
2023-04-08T05:13:16.428Z,99.90
2023-04-08T05:15:43.351Z,99.90
2023-04-08T05:18:09.831Z,99.90
2023-04-08T05:20:36.008Z,99.90
2023-04-08T05:23:02.143Z,99.90
2023-04-08T05:25:30.008Z,99.90
2023-04-08T05:27:56.892Z,99.90
2023-04-08T05:30:23.656Z,99.90
2023-04-08T05:32:50.205Z,99.90
2023-04-08T05:35:16.444Z,99.90
2023-04-08T05:37:42.581Z,99.90
2023-04-08T05:40:09.824Z,99.90
2023-04-08T05:42:36.384Z,99.90
2023-04-08T05:45:03.224Z,99.90
2023-04-08T05:47:29.430Z,99.90
2023-04-08T05:49:55.827Z,99.90
2023-04-08T05:52:22.001Z,99.90
2023-04-08T05:54:48.152Z,99.90
2023-04-08T05:57:17.145Z,99.90
2023-04-08T05:59:43.314Z,99.90
2023-04-08T06:02:10.258Z,99.90
2023-04-08T06:04:37.126Z,99.90
2023-04-08T06:07:05.281Z,99.90
2023-04-08T06:09:36.282Z,99.90
2023-04-08T06:12:03.014Z,99.90
2023-04-08T06:14:29.158Z,99.90
2023-04-08T06:16:56.922Z,99.90
2023-04-08T06:19:24.477Z,99.90
2023-04-08T06:21:51.265Z,99.90
2023-04-08T06:24:17.575Z,99.80
2023-04-08T06:26:43.741Z,99.40
2023-04-08T06:29:09.991Z,99.70
2023-04-08T06:31:36.497Z,99.40
2023-04-08T06:34:02.701Z,99.90
2023-04-08T06:36:29.360Z,99.10
2023-04-08T06:38:55.536Z,98.50
2023-04-08T06:41:21.701Z,98.50
2023-04-08T06:43:47.857Z,98.10
2023-04-08T06:46:14.233Z,98.40
2023-04-08T06:48:41.206Z,98.50
2023-04-08T06:51:07.488Z,98.50
2023-04-08T06:53:33.814Z,98.00
2023-04-08T06:56:00.431Z,98.50
2023-04-08T06:58:26.682Z,99.00
2023-04-08T07:00:56.032Z,98.70
2023-04-08T07:03:24.189Z,99.00
2023-04-08T07:05:50.608Z,99.50
2023-04-08T07:08:17.208Z,99.30
2023-04-08T07:10:44.339Z,99.10
2023-04-08T07:13:10.995Z,98.60
2023-04-08T07:15:37.249Z,99.30
2023-04-08T07:18:04.273Z,98.80
2023-04-08T07:20:32.119Z,98.70
2023-04-08T07:22:58.778Z,98.30
2023-04-08T07:25:25.114Z,98.20
2023-04-08T07:27:52.363Z,98.00
2023-04-08T07:30:19.588Z,98.20
2023-04-08T07:32:45.730Z,98.90
2023-04-08T07:35:11.960Z,98.70
2023-04-08T07:37:39.190Z,99.10
2023-04-08T07:40:06.891Z,96.70
2023-04-08T07:42:33.208Z,96.90
2023-04-08T07:44:59.559Z,97.60
2023-04-08T07:47:26.718Z,97.60
2023-04-08T07:49:54.019Z,97.80
2023-04-08T07:52:20.650Z,96.80
2023-04-08T07:54:46.873Z,97.60
2023-04-08T07:57:13.470Z,96.90
2023-04-08T07:59:40.914Z,97.70
2023-04-08T08:02:08.137Z,96.70
2023-04-08T08:04:36.756Z,97.10
2023-04-08T08:07:03.615Z,96.10
2023-04-08T08:09:32.125Z,96.20
2023-04-08T08:11:58.428Z,96.10
2023-04-08T08:14:26.066Z,96.60
2023-04-08T08:16:53.486Z,96.10
2023-04-08T08:19:20.483Z,95.80
2023-04-08T08:21:46.679Z,95.30
2023-04-08T08:24:12.848Z,94.90
2023-04-08T08:26:39.097Z,95.60
2023-04-08T08:29:07.876Z,95.20
2023-04-08T08:31:37.469Z,95.20
2023-04-08T08:34:03.706Z,97.30
2023-04-08T08:36:31.418Z,96.00
2023-04-08T08:38:59.538Z,95.10
2023-04-08T08:41:25.890Z,95.00
2023-04-08T08:43:52.304Z,95.30
2023-04-08T08:46:19.027Z,93.50
2023-04-08T08:48:45.999Z,94.30
2023-04-08T08:51:12.660Z,94.80
2023-04-08T08:53:38.875Z,93.90
2023-04-08T08:56:17.870Z,94.70
2023-04-08T08:58:45.378Z,95.00
2023-04-08T09:01:34.571Z,94.50
2023-04-08T09:04:16.420Z,95.70
2023-04-08T09:06:43.535Z,94.40
2023-04-08T09:09:10.730Z,94.80
2023-04-08T09:11:41.301Z,95.40
2023-04-08T09:14:21.502Z,94.80
2023-04-08T09:16:47.731Z,94.40
2023-04-08T09:19:13.979Z,94.30
2023-04-08T09:21:40.839Z,93.10
2023-04-08T09:24:07.877Z,93.50
2023-04-08T09:26:34.468Z,92.60
2023-04-08T09:29:24.092Z,94.40
2023-04-08T09:31:55.796Z,93.20
2023-04-08T09:34:22.727Z,93.70
2023-04-08T09:36:50.152Z,93.40
2023-04-08T09:39:16.454Z,93.20
2023-04-08T09:41:43.230Z,94.70
2023-04-08T09:44:12.591Z,93.80
2023-04-08T09:47:03.786Z,92.80
2023-04-08T09:49:44.345Z,91.90
2023-04-08T09:52:25.986Z,92.90
2023-04-08T09:55:06.929Z,90.50
2023-04-08T09:57:46.156Z,90.10
2023-04-08T10:00:16.210Z,91.00
2023-04-08T10:04:35.773Z,92.80
2023-04-08T10:07:04.680Z,90.80
2023-04-08T10:09:31.954Z,91.00
2023-04-08T10:11:58.413Z,91.90
2023-04-08T10:14:28.393Z,91.20
2023-04-08T10:17:28.695Z,90.70
2023-04-08T10:19:55.602Z,91.30
2023-04-08T10:24:14.001Z,91.60
2023-04-08T10:26:44.480Z,93.00
2023-04-08T10:37:01.631Z,93.30
2023-04-08T10:39:28.314Z,92.70
2023-04-08T10:41:55.859Z,92.10
2023-04-08T10:44:23.629Z,91.70
2023-04-08T10:46:51.477Z,92.00
2023-04-08T10:49:18.055Z,90.50
2023-04-08T10:51:44.599Z,90.40
2023-04-08T10:54:13.119Z,90.50
2023-04-08T10:57:12.492Z,89.40
2023-04-08T10:59:39.153Z,87.70
2023-04-08T11:02:05.485Z,87.50
2023-04-08T11:04:32.240Z,88.30
2023-04-08T11:06:59.492Z,89.00
2023-04-08T11:09:25.737Z,84.60
2023-04-08T11:11:52.953Z,86.80
2023-04-08T11:14:21.535Z,83.40
2023-04-08T11:16:47.955Z,85.70
2023-04-08T11:19:14.757Z,85.10
2023-04-08T11:21:43.090Z,82.60
2023-04-08T11:24:11.419Z,85.00
2023-04-08T11:26:38.081Z,81.80
2023-04-08T11:29:06.875Z,79.90
2023-04-08T11:31:33.864Z,81.20
2023-04-08T11:34:00.510Z,79.20
2023-04-08T11:36:28.503Z,80.70
2023-04-08T11:38:55.028Z,75.00
2023-04-08T11:41:21.774Z,72.50
2023-04-08T11:43:56.744Z,76.00
2023-04-08T11:46:23.813Z,78.50
2023-04-08T11:49:07.362Z,79.10
2023-04-08T11:51:34.997Z,79.80
2023-04-08T11:54:05.805Z,82.50
2023-04-08T11:56:44.374Z,80.70
2023-04-08T11:59:10.962Z,79.10
2023-04-08T12:01:37.325Z,78.50
2023-04-08T12:04:04.193Z,74.90
2023-04-08T12:06:31.171Z,75.90
2023-04-08T12:08:57.367Z,79.50
2023-04-08T12:11:23.575Z,77.90
2023-04-08T12:13:50.574Z,77.50
2023-04-08T12:16:17.746Z,78.50
2023-04-08T12:18:44.895Z,78.50
2023-04-08T12:21:11.257Z,78.70
2023-04-08T12:23:37.616Z,78.60
2023-04-08T12:26:04.576Z,81.20
2023-04-08T12:28:30.824Z,78.20
2023-04-08T12:30:57.124Z,77.90
2023-04-08T12:33:23.317Z,76.30
2023-04-08T12:35:50.091Z,77.30
2023-04-08T12:38:16.813Z,74.60
2023-04-08T12:40:42.944Z,76.90
2023-04-08T12:43:09.206Z,75.20
2023-04-08T12:45:37.227Z,73.80
2023-04-08T12:48:03.919Z,76.70
2023-04-08T12:50:30.536Z,73.10
2023-04-08T12:52:57.171Z,74.70
2023-04-08T12:55:26.594Z,73.50
2023-04-08T12:57:52.931Z,73.60
2023-04-08T13:00:19.347Z,73.50
2023-04-08T13:02:45.976Z,71.80
2023-04-08T13:05:12.690Z,71.20
2023-04-08T13:07:39.242Z,72.00
2023-04-08T13:10:07.197Z,73.60
2023-04-08T13:12:33.502Z,70.70
2023-04-08T13:15:00.674Z,69.70
2023-04-08T13:17:27.623Z,70.70
2023-04-08T13:19:54.093Z,71.20
2023-04-08T13:22:20.454Z,72.80
2023-04-08T13:24:47.453Z,71.60
2023-04-08T13:27:14.035Z,73.60
2023-04-08T13:29:40.553Z,73.20
2023-04-08T13:32:06.822Z,71.00
2023-04-08T13:34:33.096Z,72.10
2023-04-08T13:36:59.386Z,74.80
2023-04-08T13:39:26.040Z,74.10
2023-04-08T13:41:52.527Z,73.10
2023-04-08T13:44:18.743Z,73.80
2023-04-08T13:46:45.477Z,75.00
2023-04-08T13:49:13.081Z,73.60
2023-04-08T13:51:39.288Z,69.40
2023-04-08T13:54:05.709Z,71.70
2023-04-08T13:56:32.133Z,72.90
2023-04-08T13:58:58.888Z,75.70
2023-04-08T14:01:25.683Z,74.50
2023-04-08T14:03:52.090Z,76.00
2023-04-08T14:06:18.486Z,74.60
2023-04-08T14:08:44.778Z,76.40
2023-04-08T14:11:11.141Z,74.20
2023-04-08T14:13:37.786Z,74.60
2023-04-08T14:16:04.459Z,74.40
2023-04-08T14:18:31.050Z,76.30
2023-04-08T14:20:58.242Z,76.00
2023-04-08T14:23:25.252Z,74.90
2023-04-08T14:25:51.505Z,77.20
2023-04-08T14:28:17.681Z,73.10
2023-04-08T14:30:43.930Z,72.10
2023-04-08T14:33:10.566Z,72.30
2023-04-08T14:35:37.484Z,72.00
2023-04-08T14:38:03.830Z,72.40
2023-04-08T14:40:30.064Z,72.30
2023-04-08T14:42:56.336Z,73.00
2023-04-08T14:45:22.609Z,74.80
2023-04-08T14:47:48.922Z,75.40
2023-04-08T14:50:16.532Z,75.10
2023-04-08T14:52:44.470Z,74.80
2023-04-08T14:55:10.730Z,75.10
2023-04-08T14:57:37.007Z,75.30
2023-04-08T15:00:04.086Z,74.40
2023-04-08T15:02:30.706Z,75.20
2023-04-08T15:04:57.253Z,74.70
2023-04-08T15:07:24.207Z,74.60
2023-04-08T15:09:50.396Z,76.30
2023-04-08T15:12:16.685Z,75.80
2023-04-08T15:14:42.926Z,75.70
2023-04-08T15:17:09.834Z,75.10
2023-04-08T15:19:36.362Z,75.10
2023-04-08T15:22:02.537Z,75.40
2023-04-08T15:24:28.708Z,75.10
2023-04-08T15:26:55.912Z,74.60
2023-04-08T15:29:23.524Z,75.00
2023-04-08T15:31:50.004Z,75.20
2023-04-08T15:34:16.498Z,77.70
2023-04-08T15:36:42.744Z,77.70
2023-04-08T15:39:09.153Z,78.60
2023-04-08T15:41:35.466Z,77.00
2023-04-08T15:44:03.180Z,78.30
2023-04-08T15:46:29.406Z,80.40
2023-04-08T15:48:56.207Z,77.70
2023-04-08T15:51:22.653Z,79.60
2023-04-08T15:53:50.884Z,79.20
2023-04-08T15:56:17.178Z,77.80
2023-04-08T15:58:44.124Z,80.00
2023-04-08T16:01:10.768Z,78.70
2023-04-08T16:03:37.913Z,77.40
2023-04-08T16:06:05.387Z,77.80
2023-04-08T16:08:32.987Z,77.50
2023-04-08T16:11:01.468Z,77.90
2023-04-08T16:13:30.732Z,77.70
2023-04-08T16:15:57.638Z,78.40
2023-04-08T16:18:24.325Z,79.40
2023-04-08T16:20:50.887Z,78.90
2023-04-08T16:23:17.338Z,79.50
2023-04-08T16:25:44.478Z,80.20
2023-04-08T16:28:11.050Z,80.10
2023-04-08T16:30:37.687Z,79.50
2023-04-08T16:33:05.223Z,80.80
2023-04-08T16:35:31.770Z,81.10
2023-04-08T16:37:58.211Z,81.00
2023-04-08T16:40:25.005Z,80.60
2023-04-08T16:42:52.631Z,82.10
2023-04-08T16:45:19.086Z,82.30
2023-04-08T16:47:45.540Z,82.30
2023-04-08T16:50:12.072Z,82.00
2023-04-08T16:52:38.520Z,83.80
2023-04-08T16:55:07.311Z,84.40
2023-04-08T16:57:34.881Z,84.60
2023-04-08T17:00:01.190Z,84.60
2023-04-08T17:02:28.120Z,84.40
2023-04-08T17:04:54.652Z,85.40
2023-04-08T17:07:21.332Z,87.40
2023-04-08T17:09:57.651Z,86.00
2023-04-08T17:12:24.233Z,86.70
2023-04-08T17:14:51.043Z,87.40
2023-04-08T17:17:17.476Z,87.80
2023-04-08T17:19:43.686Z,88.20
2023-04-08T17:22:10.126Z,88.20
2023-04-08T17:24:36.438Z,88.40
2023-04-08T17:27:02.843Z,89.80
2023-04-08T17:29:29.213Z,90.00
2023-04-08T17:31:56.239Z,90.30
2023-04-08T17:34:23.977Z,91.10
2023-04-08T17:36:51.176Z,91.40
2023-04-08T17:39:20.235Z,91.90
2023-04-08T17:41:46.824Z,91.70
2023-04-08T17:44:13.151Z,91.50
2023-04-08T17:46:39.351Z,91.60
2023-04-08T17:49:05.811Z,91.40
2023-04-08T17:51:32.292Z,91.50
2023-04-08T17:53:59.794Z,91.60
2023-04-08T17:56:27.184Z,91.90
2023-04-08T17:58:54.560Z,92.20
2023-04-08T18:01:21.741Z,92.60
2023-04-08T18:03:50.334Z,92.80
2023-04-08T18:06:17.683Z,92.60
2023-04-08T18:08:45.053Z,92.70
2023-04-08T18:11:12.670Z,92.50
2023-04-08T18:13:39.953Z,92.60
2023-04-08T18:16:14.828Z,92.90
2023-04-08T18:18:43.443Z,92.80
2023-04-08T18:21:14.525Z,93.10
2023-04-08T18:23:41.614Z,92.80
2023-04-08T18:26:11.073Z,93.10
2023-04-08T18:28:37.467Z,93.10
2023-04-08T18:31:03.707Z,93.60
2023-04-08T18:33:31.090Z,93.60
2023-04-08T18:35:59.732Z,93.40
2023-04-08T18:38:26.079Z,93.60
2023-04-08T18:40:52.782Z,94.10
2023-04-08T18:43:20.170Z,93.80
2023-04-08T18:45:48.041Z,93.40
2023-04-08T18:48:15.829Z,93.30
2023-04-08T18:50:42.404Z,93.30
2023-04-08T18:53:09.085Z,93.60
2023-04-08T18:55:39.095Z,93.40
2023-04-08T18:58:06.358Z,93.20
2023-04-08T19:00:32.850Z,93.40
2023-04-08T19:02:59.869Z,93.50
2023-04-08T19:05:26.114Z,93.50
2023-04-08T19:07:52.485Z,93.70
2023-04-08T19:10:19.233Z,94.00
2023-04-08T19:12:46.461Z,93.80
2023-04-08T19:15:13.841Z,93.70
2023-04-08T19:17:40.464Z,93.60
2023-04-08T19:20:08.514Z,93.70
2023-04-08T19:22:35.265Z,93.80
2023-04-08T19:25:02.399Z,93.80
2023-04-08T19:27:29.097Z,93.60
2023-04-08T19:29:58.194Z,93.40
2023-04-08T19:32:24.675Z,93.60
2023-04-08T19:34:53.038Z,93.60
2023-04-08T19:37:20.053Z,93.60
2023-04-08T19:39:46.742Z,93.90
2023-04-08T19:42:13.585Z,94.00
2023-04-08T19:44:40.112Z,94.10
2023-04-08T19:47:06.463Z,94.00
2023-04-08T19:49:33.539Z,94.40
2023-04-08T19:52:01.724Z,94.80
2023-04-08T19:54:29.764Z,94.50
2023-04-08T19:56:58.374Z,94.60
2023-04-08T19:59:25.929Z,94.60
2023-04-08T20:01:53.530Z,94.60
2023-04-08T20:04:21.395Z,94.80
2023-04-08T20:06:47.854Z,94.80
2023-04-08T20:09:14.994Z,94.50
2023-04-08T20:11:43.634Z,94.70
2023-04-08T20:14:10.307Z,95.00
2023-04-08T20:16:37.465Z,95.20
2023-04-08T20:19:04.135Z,95.30
2023-04-08T20:21:31.485Z,95.40
2023-04-08T20:23:58.848Z,95.30
2023-04-08T20:26:25.292Z,95.30
2023-04-08T20:28:51.698Z,95.10
2023-04-08T20:31:18.802Z,95.00
2023-04-08T20:33:45.157Z,95.00
2023-04-08T20:36:12.044Z,95.00
2023-04-08T20:38:39.250Z,95.10
2023-04-08T20:41:05.912Z,95.30
2023-04-08T20:43:32.345Z,95.30
2023-04-08T20:45:58.944Z,95.60
2023-04-08T20:48:25.343Z,95.60
2023-04-08T20:50:52.487Z,95.80
2023-04-08T20:53:20.216Z,95.60
2023-04-08T20:55:46.638Z,95.60
2023-04-08T20:58:14.706Z,95.60
2023-04-08T21:00:41.004Z,95.60
2023-04-08T21:03:08.010Z,95.70
2023-04-08T21:05:37.477Z,95.80
2023-04-08T21:08:03.803Z,95.60
2023-04-08T21:10:30.392Z,95.60
2023-04-08T21:12:56.907Z,95.60
2023-04-08T21:15:23.107Z,95.70
2023-04-08T21:17:49.742Z,95.70
2023-04-08T21:20:16.546Z,96.00
2023-04-08T21:22:43.336Z,96.10
2023-04-08T21:25:10.821Z,96.10
2023-04-08T21:27:37.740Z,96.20
2023-04-08T21:30:04.626Z,96.30
2023-04-08T21:32:32.016Z,96.40
2023-04-08T21:35:00.381Z,96.50
2023-04-08T21:37:26.885Z,96.60
2023-04-08T21:39:54.713Z,96.20
2023-04-08T21:42:22.262Z,96.20
2023-04-08T21:44:51.961Z,96.20
2023-04-08T21:47:20.556Z,96.20
2023-04-08T21:49:49.878Z,96.20
2023-04-08T21:52:18.222Z,96.20
2023-04-08T21:54:49.360Z,96.10
2023-04-08T21:57:17.000Z,96.10
2023-04-08T21:59:44.413Z,96.30
2023-04-08T22:02:11.853Z,96.50
2023-04-08T22:04:39.997Z,96.20
2023-04-08T22:07:06.738Z,96.70
2023-04-08T22:09:33.090Z,96.50
2023-04-08T22:11:59.419Z,96.40
2023-04-08T22:14:26.374Z,96.40
2023-04-08T22:16:55.776Z,96.00
2023-04-08T22:19:23.729Z,96.00
2023-04-08T22:21:50.497Z,96.20
2023-04-08T22:24:19.848Z,96.00
2023-04-08T22:26:46.305Z,95.90
2023-04-08T22:29:12.742Z,95.70
2023-04-08T22:31:39.163Z,95.50
2023-04-08T22:34:05.590Z,95.70
2023-04-08T22:36:31.788Z,95.50
2023-04-08T22:38:58.030Z,95.50
2023-04-08T22:41:24.183Z,95.30
2023-04-08T22:43:50.853Z,95.10
2023-04-08T22:46:18.045Z,95.00
2023-04-08T22:48:45.013Z,95.00
2023-04-08T22:51:11.905Z,95.00
2023-04-08T22:53:38.169Z,94.70
2023-04-08T22:56:05.568Z,94.40
2023-04-08T22:58:31.818Z,94.30
2023-04-08T23:00:58.010Z,94.10
2023-04-08T23:03:24.243Z,94.00
2023-04-08T23:05:51.362Z,94.00
2023-04-08T23:08:17.963Z,94.00
2023-04-08T23:10:44.311Z,94.10
2023-04-08T23:13:10.754Z,94.40
2023-04-08T23:15:37.456Z,94.60
2023-04-08T23:18:05.345Z,94.90
2023-04-08T23:20:32.541Z,95.00
2023-04-08T23:22:59.094Z,95.30
2023-04-08T23:25:25.384Z,95.40
2023-04-08T23:27:51.632Z,95.40
2023-04-08T23:30:18.388Z,95.50
2023-04-08T23:32:44.724Z,95.40
2023-04-08T23:35:11.123Z,95.50
2023-04-08T23:37:37.555Z,95.60
2023-04-08T23:40:04.882Z,95.70
2023-04-08T23:42:31.023Z,96.60
2023-04-08T23:44:57.299Z,96.00
2023-04-08T23:47:24.587Z,96.00
2023-04-08T23:49:50.832Z,96.60
2023-04-08T23:52:18.098Z,96.20
2023-04-08T23:54:44.687Z,96.10
2023-04-08T23:57:10.913Z,96.50
2023-04-08T23:59:37.391Z,96.40
